sensor_id;sensor_type;location;lat;lon;timestamp;temperature;humidity
3418;DHT22;68007;51.312;12.372;2023-03-11T00:00:34;1.30;99.90
3418;DHT22;68007;51.312;12.372;2023-03-11T00:03:05;1.20;99.90
3418;DHT22;68007;51.312;12.372;2023-03-11T00:05:35;1.20;99.90
3418;DHT22;68007;51.312;12.372;2023-03-11T00:08:03;1.10;99.90
3418;DHT22;68007;51.312;12.372;2023-03-11T00:10:33;1.10;99.90
3418;DHT22;68007;51.312;12.372;2023-03-11T00:13:02;1.00;99.90
3418;DHT22;68007;51.312;12.372;2023-03-11T00:15:30;1.00;99.90
3418;DHT22;68007;51.312;12.372;2023-03-11T00:17:58;1.00;99.90
3418;DHT22;68007;51.312;12.372;2023-03-11T00:20:30;0.90;99.90
3418;DHT22;68007;51.312;12.372;2023-03-11T00:22:58;0.90;99.90
3418;DHT22;68007;51.312;12.372;2023-03-11T00:25:32;0.90;99.90
3418;DHT22;68007;51.312;12.372;2023-03-11T00:28:00;0.80;99.90
3418;DHT22;68007;51.312;12.372;2023-03-11T00:30:28;0.80;99.90
3418;DHT22;68007;51.312;12.372;2023-03-11T00:32:57;0.80;99.90
3418;DHT22;68007;51.312;12.372;2023-03-11T00:35:28;0.70;99.90
3418;DHT22;68007;51.312;12.372;2023-03-11T00:37:58;0.80;99.90
3418;DHT22;68007;51.312;12.372;2023-03-11T00:40:28;0.70;99.90
3418;DHT22;68007;51.312;12.372;2023-03-11T00:42:56;0.70;99.90
3418;DHT22;68007;51.312;12.372;2023-03-11T00:45:24;0.70;99.90
3418;DHT22;68007;51.312;12.372;2023-03-11T00:47:52;0.50;99.90
3418;DHT22;68007;51.312;12.372;2023-03-11T00:50:22;0.50;99.90
3418;DHT22;68007;51.312;12.372;2023-03-11T00:52:51;0.50;99.90
3418;DHT22;68007;51.312;12.372;2023-03-11T00:55:21;0.60;99.90
3418;DHT22;68007;51.312;12.372;2023-03-11T00:57:51;0.50;99.90
3418;DHT22;68007;51.312;12.372;2023-03-11T01:00:20;0.50;99.90
3418;DHT22;68007;51.312;12.372;2023-03-11T01:02:48;0.50;99.90
3418;DHT22;68007;51.312;12.372;2023-03-11T01:05:18;0.40;99.90
3418;DHT22;68007;51.312;12.372;2023-03-11T01:07:46;0.40;99.90
3418;DHT22;68007;51.312;12.372;2023-03-11T01:10:16;0.40;99.90
3418;DHT22;68007;51.312;12.372;2023-03-11T01:12:44;0.40;99.90
3418;DHT22;68007;51.312;12.372;2023-03-11T01:15:17;0.40;99.90
3418;DHT22;68007;51.312;12.372;2023-03-11T01:17:44;0.40;99.90
3418;DHT22;68007;51.312;12.372;2023-03-11T01:20:12;0.50;99.90
3418;DHT22;68007;51.312;12.372;2023-03-11T01:22:40;0.40;99.90
3418;DHT22;68007;51.312;12.372;2023-03-11T01:25:10;0.40;99.90
3418;DHT22;68007;51.312;12.372;2023-03-11T01:27:39;0.40;99.90
3418;DHT22;68007;51.312;12.372;2023-03-11T01:30:08;0.40;99.90
3418;DHT22;68007;51.312;12.372;2023-03-11T01:32:36;0.40;99.90
3418;DHT22;68007;51.312;12.372;2023-03-11T01:35:04;0.50;99.90
3418;DHT22;68007;51.312;12.372;2023-03-11T01:37:31;0.50;99.90
3418;DHT22;68007;51.312;12.372;2023-03-11T01:39:59;0.40;99.90
3418;DHT22;68007;51.312;12.372;2023-03-11T01:42:26;0.40;99.90
3418;DHT22;68007;51.312;12.372;2023-03-11T01:44:55;0.30;99.90
3418;DHT22;68007;51.312;12.372;2023-03-11T01:47:34;0.30;99.90
3418;DHT22;68007;51.312;12.372;2023-03-11T01:50:06;0.30;99.90
3418;DHT22;68007;51.312;12.372;2023-03-11T01:52:34;0.40;99.90
3418;DHT22;68007;51.312;12.372;2023-03-11T01:55:02;0.40;99.90
3418;DHT22;68007;51.312;12.372;2023-03-11T01:57:30;0.30;99.90
3418;DHT22;68007;51.312;12.372;2023-03-11T02:00:01;0.30;99.90
3418;DHT22;68007;51.312;12.372;2023-03-11T02:02:35;0.30;99.90
3418;DHT22;68007;51.312;12.372;2023-03-11T02:05:03;0.20;99.90
3418;DHT22;68007;51.312;12.372;2023-03-11T02:07:31;0.20;99.90
3418;DHT22;68007;51.312;12.372;2023-03-11T02:09:59;0.30;99.90
3418;DHT22;68007;51.312;12.372;2023-03-11T02:12:28;0.40;99.90
3418;DHT22;68007;51.312;12.372;2023-03-11T02:14:58;0.40;99.90
3418;DHT22;68007;51.312;12.372;2023-03-11T02:17:27;0.30;99.90
3418;DHT22;68007;51.312;12.372;2023-03-11T02:20:04;0.30;99.90
3418;DHT22;68007;51.312;12.372;2023-03-11T02:22:39;0.20;99.90
3418;DHT22;68007;51.312;12.372;2023-03-11T02:25:11;0.20;99.90
3418;DHT22;68007;51.312;12.372;2023-03-11T02:27:46;0.20;99.90
3418;DHT22;68007;51.312;12.372;2023-03-11T02:30:15;0.20;99.90
3418;DHT22;68007;51.312;12.372;2023-03-11T02:32:44;0.20;99.90
3418;DHT22;68007;51.312;12.372;2023-03-11T02:35:14;0.10;99.90
3418;DHT22;68007;51.312;12.372;2023-03-11T02:37:46;0.10;99.90
3418;DHT22;68007;51.312;12.372;2023-03-11T02:40:48;0.10;99.90
3418;DHT22;68007;51.312;12.372;2023-03-11T02:43:21;0.20;99.90
3418;DHT22;68007;51.312;12.372;2023-03-11T02:45:50;0.20;99.90
3418;DHT22;68007;51.312;12.372;2023-03-11T02:48:17;0.30;99.90
3418;DHT22;68007;51.312;12.372;2023-03-11T02:50:46;0.30;99.90
3418;DHT22;68007;51.312;12.372;2023-03-11T02:53:14;0.20;99.90
3418;DHT22;68007;51.312;12.372;2023-03-11T02:55:41;0.20;99.90
3418;DHT22;68007;51.312;12.372;2023-03-11T02:58:09;0.30;99.90
3418;DHT22;68007;51.312;12.372;2023-03-11T03:00:38;0.20;99.90
3418;DHT22;68007;51.312;12.372;2023-03-11T03:03:05;0.20;99.90
3418;DHT22;68007;51.312;12.372;2023-03-11T03:05:33;0.20;99.90
3418;DHT22;68007;51.312;12.372;2023-03-11T03:08:01;0.20;99.90
3418;DHT22;68007;51.312;12.372;2023-03-11T03:10:29;0.20;99.90
3418;DHT22;68007;51.312;12.372;2023-03-11T03:12:56;0.20;99.90
3418;DHT22;68007;51.312;12.372;2023-03-11T03:15:24;0.20;99.90
3418;DHT22;68007;51.312;12.372;2023-03-11T03:17:53;0.20;99.90
3418;DHT22;68007;51.312;12.372;2023-03-11T03:20:20;0.20;99.90
3418;DHT22;68007;51.312;12.372;2023-03-11T03:22:48;0.20;99.90
3418;DHT22;68007;51.312;12.372;2023-03-11T03:25:16;0.20;99.90
3418;DHT22;68007;51.312;12.372;2023-03-11T03:27:44;0.30;99.90
3418;DHT22;68007;51.312;12.372;2023-03-11T03:30:11;0.30;99.90
3418;DHT22;68007;51.312;12.372;2023-03-11T03:32:39;0.20;99.90
3418;DHT22;68007;51.312;12.372;2023-03-11T03:35:09;0.20;99.90
3418;DHT22;68007;51.312;12.372;2023-03-11T03:37:36;0.30;99.90
3418;DHT22;68007;51.312;12.372;2023-03-11T03:40:05;0.30;99.90
3418;DHT22;68007;51.312;12.372;2023-03-11T03:42:34;0.30;99.90
3418;DHT22;68007;51.312;12.372;2023-03-11T03:45:02;0.30;99.90
3418;DHT22;68007;51.312;12.372;2023-03-11T03:47:30;0.40;99.90
3418;DHT22;68007;51.312;12.372;2023-03-11T03:49:58;0.30;99.90
3418;DHT22;68007;51.312;12.372;2023-03-11T03:52:27;0.30;99.90
3418;DHT22;68007;51.312;12.372;2023-03-11T03:54:54;0.30;99.90
3418;DHT22;68007;51.312;12.372;2023-03-11T03:57:22;0.40;99.90
3418;DHT22;68007;51.312;12.372;2023-03-11T03:59:49;0.40;99.90
3418;DHT22;68007;51.312;12.372;2023-03-11T04:02:17;0.40;99.90
3418;DHT22;68007;51.312;12.372;2023-03-11T04:04:44;0.30;99.90
3418;DHT22;68007;51.312;12.372;2023-03-11T04:07:12;0.40;99.90
3418;DHT22;68007;51.312;12.372;2023-03-11T04:09:42;0.40;99.90
3418;DHT22;68007;51.312;12.372;2023-03-11T04:12:12;0.40;99.90
3418;DHT22;68007;51.312;12.372;2023-03-11T04:14:40;0.40;99.90
3418;DHT22;68007;51.312;12.372;2023-03-11T04:17:08;0.50;99.90
3418;DHT22;68007;51.312;12.372;2023-03-11T04:19:36;0.40;99.90
3418;DHT22;68007;51.312;12.372;2023-03-11T04:22:03;0.40;99.90
3418;DHT22;68007;51.312;12.372;2023-03-11T04:24:31;0.50;99.90
3418;DHT22;68007;51.312;12.372;2023-03-11T04:27:00;0.60;99.90
3418;DHT22;68007;51.312;12.372;2023-03-11T04:29:28;0.60;99.90
3418;DHT22;68007;51.312;12.372;2023-03-11T04:31:55;0.60;99.90
3418;DHT22;68007;51.312;12.372;2023-03-11T04:34:23;0.60;99.90
3418;DHT22;68007;51.312;12.372;2023-03-11T04:36:51;0.40;99.90
3418;DHT22;68007;51.312;12.372;2023-03-11T04:39:19;0.30;99.90
3418;DHT22;68007;51.312;12.372;2023-03-11T04:41:47;0.40;99.90
3418;DHT22;68007;51.312;12.372;2023-03-11T04:44:15;0.30;99.90
3418;DHT22;68007;51.312;12.372;2023-03-11T04:46:43;0.30;99.90
3418;DHT22;68007;51.312;12.372;2023-03-11T04:49:10;0.30;99.90
3418;DHT22;68007;51.312;12.372;2023-03-11T04:51:38;0.30;99.90
3418;DHT22;68007;51.312;12.372;2023-03-11T04:54:05;0.40;99.90
3418;DHT22;68007;51.312;12.372;2023-03-11T04:56:33;0.50;99.90
3418;DHT22;68007;51.312;12.372;2023-03-11T04:59:00;0.50;99.90
3418;DHT22;68007;51.312;12.372;2023-03-11T05:01:29;0.50;99.90
3418;DHT22;68007;51.312;12.372;2023-03-11T05:03:57;0.50;99.90
3418;DHT22;68007;51.312;12.372;2023-03-11T05:06:24;0.50;99.90
3418;DHT22;68007;51.312;12.372;2023-03-11T05:08:52;0.60;99.90
3418;DHT22;68007;51.312;12.372;2023-03-11T05:11:19;0.60;99.90
3418;DHT22;68007;51.312;12.372;2023-03-11T05:13:47;0.50;99.90
3418;DHT22;68007;51.312;12.372;2023-03-11T05:16:14;0.50;99.90
3418;DHT22;68007;51.312;12.372;2023-03-11T05:18:43;0.70;99.90
3418;DHT22;68007;51.312;12.372;2023-03-11T05:21:11;0.70;99.90
3418;DHT22;68007;51.312;12.372;2023-03-11T05:23:38;0.70;99.90
3418;DHT22;68007;51.312;12.372;2023-03-11T05:26:06;0.60;99.90
3418;DHT22;68007;51.312;12.372;2023-03-11T05:28:33;0.60;99.90
3418;DHT22;68007;51.312;12.372;2023-03-11T05:31:01;0.60;99.90
3418;DHT22;68007;51.312;12.372;2023-03-11T05:33:28;0.70;99.90
3418;DHT22;68007;51.312;12.372;2023-03-11T05:36:05;0.80;99.90
3418;DHT22;68007;51.312;12.372;2023-03-11T05:38:33;0.70;99.90
3418;DHT22;68007;51.312;12.372;2023-03-11T05:41:01;0.70;99.90
3418;DHT22;68007;51.312;12.372;2023-03-11T05:43:29;0.70;99.90
3418;DHT22;68007;51.312;12.372;2023-03-11T05:45:56;0.70;99.90
3418;DHT22;68007;51.312;12.372;2023-03-11T05:48:24;0.70;99.90
3418;DHT22;68007;51.312;12.372;2023-03-11T05:50:51;0.70;99.90
3418;DHT22;68007;51.312;12.372;2023-03-11T05:53:20;0.70;99.90
3418;DHT22;68007;51.312;12.372;2023-03-11T05:55:55;0.70;99.90
3418;DHT22;68007;51.312;12.372;2023-03-11T05:58:22;0.50;99.90
3418;DHT22;68007;51.312;12.372;2023-03-11T06:00:50;0.60;99.90
3418;DHT22;68007;51.312;12.372;2023-03-11T06:03:17;0.60;99.90
3418;DHT22;68007;51.312;12.372;2023-03-11T06:05:45;0.70;99.90
3418;DHT22;68007;51.312;12.372;2023-03-11T06:08:13;0.70;99.90
3418;DHT22;68007;51.312;12.372;2023-03-11T06:10:42;0.60;99.90
3418;DHT22;68007;51.312;12.372;2023-03-11T06:13:10;0.60;99.90
3418;DHT22;68007;51.312;12.372;2023-03-11T06:15:38;0.60;99.90
3418;DHT22;68007;51.312;12.372;2023-03-11T06:18:05;0.60;99.90
3418;DHT22;68007;51.312;12.372;2023-03-11T06:20:33;0.60;99.90
3418;DHT22;68007;51.312;12.372;2023-03-11T06:23:00;0.70;99.90
3418;DHT22;68007;51.312;12.372;2023-03-11T06:25:27;0.70;99.90
3418;DHT22;68007;51.312;12.372;2023-03-11T06:27:56;0.70;99.90
3418;DHT22;68007;51.312;12.372;2023-03-11T06:30:24;0.70;99.90
3418;DHT22;68007;51.312;12.372;2023-03-11T06:32:52;0.60;99.90
3418;DHT22;68007;51.312;12.372;2023-03-11T06:35:20;0.60;99.90
3418;DHT22;68007;51.312;12.372;2023-03-11T06:37:48;0.50;99.90
3418;DHT22;68007;51.312;12.372;2023-03-11T06:40:15;0.50;99.90
3418;DHT22;68007;51.312;12.372;2023-03-11T06:42:45;0.50;99.90
3418;DHT22;68007;51.312;12.372;2023-03-11T06:45:14;0.50;99.90
3418;DHT22;68007;51.312;12.372;2023-03-11T06:47:41;0.50;99.90
3418;DHT22;68007;51.312;12.372;2023-03-11T06:50:09;0.40;99.90
3418;DHT22;68007;51.312;12.372;2023-03-11T06:52:37;0.40;99.90
3418;DHT22;68007;51.312;12.372;2023-03-11T06:55:05;0.50;99.90
3418;DHT22;68007;51.312;12.372;2023-03-11T06:57:33;0.40;99.90
3418;DHT22;68007;51.312;12.372;2023-03-11T07:00:03;0.50;99.90
3418;DHT22;68007;51.312;12.372;2023-03-11T07:02:34;0.40;99.90
3418;DHT22;68007;51.312;12.372;2023-03-11T07:05:02;0.40;99.90
3418;DHT22;68007;51.312;12.372;2023-03-11T07:07:29;0.50;99.90
3418;DHT22;68007;51.312;12.372;2023-03-11T07:09:57;0.50;99.90
3418;DHT22;68007;51.312;12.372;2023-03-11T07:12:24;0.40;99.90
3418;DHT22;68007;51.312;12.372;2023-03-11T07:14:53;0.40;99.90
3418;DHT22;68007;51.312;12.372;2023-03-11T07:17:21;0.50;99.90
3418;DHT22;68007;51.312;12.372;2023-03-11T07:19:50;0.50;99.90
3418;DHT22;68007;51.312;12.372;2023-03-11T07:22:18;0.60;99.90
3418;DHT22;68007;51.312;12.372;2023-03-11T07:24:47;0.50;99.90
3418;DHT22;68007;51.312;12.372;2023-03-11T07:27:15;0.50;99.90
3418;DHT22;68007;51.312;12.372;2023-03-11T07:29:42;0.60;99.90
3418;DHT22;68007;51.312;12.372;2023-03-11T07:32:10;0.60;99.90
3418;DHT22;68007;51.312;12.372;2023-03-11T07:34:37;0.60;99.90
3418;DHT22;68007;51.312;12.372;2023-03-11T07:37:06;0.60;99.90
3418;DHT22;68007;51.312;12.372;2023-03-11T07:39:34;0.70;99.90
3418;DHT22;68007;51.312;12.372;2023-03-11T07:42:03;0.80;99.90
3418;DHT22;68007;51.312;12.372;2023-03-11T07:44:31;0.70;99.90
3418;DHT22;68007;51.312;12.372;2023-03-11T07:47:01;0.70;99.90
3418;DHT22;68007;51.312;12.372;2023-03-11T07:49:28;0.80;99.90
3418;DHT22;68007;51.312;12.372;2023-03-11T07:51:56;0.70;99.90
3418;DHT22;68007;51.312;12.372;2023-03-11T07:54:25;0.80;99.90
3418;DHT22;68007;51.312;12.372;2023-03-11T07:56:52;0.80;99.90
3418;DHT22;68007;51.312;12.372;2023-03-11T07:59:20;0.80;99.90
3418;DHT22;68007;51.312;12.372;2023-03-11T08:01:48;0.80;99.90
3418;DHT22;68007;51.312;12.372;2023-03-11T08:04:15;0.90;99.90
3418;DHT22;68007;51.312;12.372;2023-03-11T08:06:45;0.80;99.90
3418;DHT22;68007;51.312;12.372;2023-03-11T08:09:12;0.80;99.90
3418;DHT22;68007;51.312;12.372;2023-03-11T08:11:41;0.70;99.90
3418;DHT22;68007;51.312;12.372;2023-03-11T08:14:09;0.80;99.90
3418;DHT22;68007;51.312;12.372;2023-03-11T08:16:38;0.90;99.90
3418;DHT22;68007;51.312;12.372;2023-03-11T08:19:06;0.80;99.90
3418;DHT22;68007;51.312;12.372;2023-03-11T08:21:36;0.80;99.90
3418;DHT22;68007;51.312;12.372;2023-03-11T08:24:05;0.70;99.90
3418;DHT22;68007;51.312;12.372;2023-03-11T08:26:32;0.60;99.90
3418;DHT22;68007;51.312;12.372;2023-03-11T08:29:01;0.70;99.90
3418;DHT22;68007;51.312;12.372;2023-03-11T08:31:30;0.70;99.90
3418;DHT22;68007;51.312;12.372;2023-03-11T08:34:00;0.70;99.90
3418;DHT22;68007;51.312;12.372;2023-03-11T08:36:29;0.70;99.90
3418;DHT22;68007;51.312;12.372;2023-03-11T08:38:57;0.80;99.90
3418;DHT22;68007;51.312;12.372;2023-03-11T08:41:25;0.80;99.90
3418;DHT22;68007;51.312;12.372;2023-03-11T08:43:53;0.70;99.90
3418;DHT22;68007;51.312;12.372;2023-03-11T08:46:24;0.80;99.90
3418;DHT22;68007;51.312;12.372;2023-03-11T08:48:52;0.90;99.90
3418;DHT22;68007;51.312;12.372;2023-03-11T08:51:21;0.90;99.90
3418;DHT22;68007;51.312;12.372;2023-03-11T08:53:49;0.90;99.90
3418;DHT22;68007;51.312;12.372;2023-03-11T08:56:17;1.00;99.90
3418;DHT22;68007;51.312;12.372;2023-03-11T08:58:45;1.00;99.90
3418;DHT22;68007;51.312;12.372;2023-03-11T09:01:13;1.00;99.90
3418;DHT22;68007;51.312;12.372;2023-03-11T09:03:42;1.00;99.90
3418;DHT22;68007;51.312;12.372;2023-03-11T09:06:12;1.00;99.90
3418;DHT22;68007;51.312;12.372;2023-03-11T09:08:41;1.00;99.90
3418;DHT22;68007;51.312;12.372;2023-03-11T09:11:09;1.10;99.90
3418;DHT22;68007;51.312;12.372;2023-03-11T09:13:38;1.10;99.90
3418;DHT22;68007;51.312;12.372;2023-03-11T09:16:08;1.20;99.90
3418;DHT22;68007;51.312;12.372;2023-03-11T09:18:36;1.20;99.90
3418;DHT22;68007;51.312;12.372;2023-03-11T09:21:05;1.10;99.90
3418;DHT22;68007;51.312;12.372;2023-03-11T09:23:33;1.20;99.90
3418;DHT22;68007;51.312;12.372;2023-03-11T09:26:00;1.30;99.90
3418;DHT22;68007;51.312;12.372;2023-03-11T09:28:28;1.30;99.90
3418;DHT22;68007;51.312;12.372;2023-03-11T09:30:55;1.30;99.90
3418;DHT22;68007;51.312;12.372;2023-03-11T09:33:23;1.30;99.90
3418;DHT22;68007;51.312;12.372;2023-03-11T09:35:51;1.30;99.90
3418;DHT22;68007;51.312;12.372;2023-03-11T09:38:19;1.30;99.90
3418;DHT22;68007;51.312;12.372;2023-03-11T09:40:55;1.40;99.90
3418;DHT22;68007;51.312;12.372;2023-03-11T09:43:34;1.40;99.90
3418;DHT22;68007;51.312;12.372;2023-03-11T09:46:26;1.50;99.90
3418;DHT22;68007;51.312;12.372;2023-03-11T09:49:01;1.50;99.90
3418;DHT22;68007;51.312;12.372;2023-03-11T09:51:36;1.50;99.90
3418;DHT22;68007;51.312;12.372;2023-03-11T09:54:10;1.50;99.90
3418;DHT22;68007;51.312;12.372;2023-03-11T09:56:39;1.50;99.90
3418;DHT22;68007;51.312;12.372;2023-03-11T09:59:14;1.70;99.90
3418;DHT22;68007;51.312;12.372;2023-03-11T10:01:44;1.80;99.90
3418;DHT22;68007;51.312;12.372;2023-03-11T10:04:17;1.70;99.90
3418;DHT22;68007;51.312;12.372;2023-03-11T10:06:46;1.80;99.90
3418;DHT22;68007;51.312;12.372;2023-03-11T10:09:28;1.80;99.90
3418;DHT22;68007;51.312;12.372;2023-03-11T10:12:05;1.90;99.90
3418;DHT22;68007;51.312;12.372;2023-03-11T10:14:47;1.80;99.90
3418;DHT22;68007;51.312;12.372;2023-03-11T10:17:34;1.90;99.90
3418;DHT22;68007;51.312;12.372;2023-03-11T10:20:07;1.90;99.90
3418;DHT22;68007;51.312;12.372;2023-03-11T10:22:40;1.90;99.90
3418;DHT22;68007;51.312;12.372;2023-03-11T10:25:13;1.90;99.90
3418;DHT22;68007;51.312;12.372;2023-03-11T10:27:46;1.90;99.90
3418;DHT22;68007;51.312;12.372;2023-03-11T10:30:25;1.90;99.90
3418;DHT22;68007;51.312;12.372;2023-03-11T10:32:57;1.90;99.90
3418;DHT22;68007;51.312;12.372;2023-03-11T10:35:32;1.90;99.90
3418;DHT22;68007;51.312;12.372;2023-03-11T10:38:06;1.90;99.90
3418;DHT22;68007;51.312;12.372;2023-03-11T10:40:40;1.90;99.90
3418;DHT22;68007;51.312;12.372;2023-03-11T10:43:10;1.90;99.90
3418;DHT22;68007;51.312;12.372;2023-03-11T10:45:41;1.80;99.90
3418;DHT22;68007;51.312;12.372;2023-03-11T10:48:11;1.90;99.90
3418;DHT22;68007;51.312;12.372;2023-03-11T10:50:49;1.90;99.90
3418;DHT22;68007;51.312;12.372;2023-03-11T10:53:18;1.90;99.90
3418;DHT22;68007;51.312;12.372;2023-03-11T10:55:49;1.90;99.90
3418;DHT22;68007;51.312;12.372;2023-03-11T10:58:19;1.80;99.90
3418;DHT22;68007;51.312;12.372;2023-03-11T11:00:59;1.80;99.90
3418;DHT22;68007;51.312;12.372;2023-03-11T11:03:27;1.90;99.90
3418;DHT22;68007;51.312;12.372;2023-03-11T11:05:58;1.90;99.90
3418;DHT22;68007;51.312;12.372;2023-03-11T11:08:27;2.00;99.90
3418;DHT22;68007;51.312;12.372;2023-03-11T11:10:57;2.00;99.90
3418;DHT22;68007;51.312;12.372;2023-03-11T11:13:26;2.00;99.90
3418;DHT22;68007;51.312;12.372;2023-03-11T11:15:58;2.00;99.90
3418;DHT22;68007;51.312;12.372;2023-03-11T11:18:30;2.00;99.90
3418;DHT22;68007;51.312;12.372;2023-03-11T11:21:03;2.10;99.90
3418;DHT22;68007;51.312;12.372;2023-03-11T11:23:35;2.20;99.90
3418;DHT22;68007;51.312;12.372;2023-03-11T11:26:06;2.10;99.90
3418;DHT22;68007;51.312;12.372;2023-03-11T11:28:40;2.10;99.90
3418;DHT22;68007;51.312;12.372;2023-03-11T11:31:19;2.10;99.90
3418;DHT22;68007;51.312;12.372;2023-03-11T11:33:49;2.00;99.90
3418;DHT22;68007;51.312;12.372;2023-03-11T11:36:17;2.00;99.90
3418;DHT22;68007;51.312;12.372;2023-03-11T11:38:46;2.00;99.90
3418;DHT22;68007;51.312;12.372;2023-03-11T11:41:17;2.10;99.90
3418;DHT22;68007;51.312;12.372;2023-03-11T11:43:50;2.20;99.90
3418;DHT22;68007;51.312;12.372;2023-03-11T11:46:21;2.20;99.90
3418;DHT22;68007;51.312;12.372;2023-03-11T11:49:02;2.20;99.90
3418;DHT22;68007;51.312;12.372;2023-03-11T11:51:37;2.10;99.90
3418;DHT22;68007;51.312;12.372;2023-03-11T11:54:14;2.20;99.90
3418;DHT22;68007;51.312;12.372;2023-03-11T11:56:44;2.20;99.90
3418;DHT22;68007;51.312;12.372;2023-03-11T11:59:16;2.30;99.90
3418;DHT22;68007;51.312;12.372;2023-03-11T12:01:53;2.30;99.90
3418;DHT22;68007;51.312;12.372;2023-03-11T12:04:31;2.30;99.90
3418;DHT22;68007;51.312;12.372;2023-03-11T12:07:14;2.40;99.90
3418;DHT22;68007;51.312;12.372;2023-03-11T12:09:48;2.40;99.90
3418;DHT22;68007;51.312;12.372;2023-03-11T12:12:24;2.40;99.90
3418;DHT22;68007;51.312;12.372;2023-03-11T12:14:59;2.40;99.90
3418;DHT22;68007;51.312;12.372;2023-03-11T12:17:28;2.40;99.90
3418;DHT22;68007;51.312;12.372;2023-03-11T12:20:00;2.40;99.90
3418;DHT22;68007;51.312;12.372;2023-03-11T12:22:52;2.50;99.90
3418;DHT22;68007;51.312;12.372;2023-03-11T12:25:29;2.50;99.90
3418;DHT22;68007;51.312;12.372;2023-03-11T12:28:04;2.50;99.90
3418;DHT22;68007;51.312;12.372;2023-03-11T12:30:39;2.60;99.90
3418;DHT22;68007;51.312;12.372;2023-03-11T12:33:13;2.60;99.90
3418;DHT22;68007;51.312;12.372;2023-03-11T12:35:48;2.70;99.90
3418;DHT22;68007;51.312;12.372;2023-03-11T12:38:19;2.80;99.90
3418;DHT22;68007;51.312;12.372;2023-03-11T12:40:55;3.00;99.90
3418;DHT22;68007;51.312;12.372;2023-03-11T12:50:36;2.90;99.90
3418;DHT22;68007;51.312;12.372;2023-03-11T12:53:07;2.90;99.90
3418;DHT22;68007;51.312;12.372;2023-03-11T12:55:57;3.00;99.90
3418;DHT22;68007;51.312;12.372;2023-03-11T12:58:42;2.90;99.90
3418;DHT22;68007;51.312;12.372;2023-03-11T13:04:47;2.80;99.90
3418;DHT22;68007;51.312;12.372;2023-03-11T13:07:45;2.80;99.90
3418;DHT22;68007;51.312;12.372;2023-03-11T13:10:16;2.70;99.90
3418;DHT22;68007;51.312;12.372;2023-03-11T13:12:46;2.60;99.90
3418;DHT22;68007;51.312;12.372;2023-03-11T13:15:30;2.70;99.90
3418;DHT22;68007;51.312;12.372;2023-03-11T13:18:01;2.60;99.90
3418;DHT22;68007;51.312;12.372;2023-03-11T13:20:42;2.60;99.90
3418;DHT22;68007;51.312;12.372;2023-03-11T13:23:31;2.70;99.90
3418;DHT22;68007;51.312;12.372;2023-03-11T13:26:33;2.70;99.90
3418;DHT22;68007;51.312;12.372;2023-03-11T13:29:23;2.80;99.90
3418;DHT22;68007;51.312;12.372;2023-03-11T13:32:03;2.80;99.90
3418;DHT22;68007;51.312;12.372;2023-03-11T13:34:41;2.80;99.90
3418;DHT22;68007;51.312;12.372;2023-03-11T13:37:18;2.80;99.90
3418;DHT22;68007;51.312;12.372;2023-03-11T13:40:05;2.80;99.90
3418;DHT22;68007;51.312;12.372;2023-03-11T13:42:43;2.70;99.90
3418;DHT22;68007;51.312;12.372;2023-03-11T13:45:30;2.70;99.90
3418;DHT22;68007;51.312;12.372;2023-03-11T13:48:02;2.60;99.90
3418;DHT22;68007;51.312;12.372;2023-03-11T13:50:34;2.60;99.90
3418;DHT22;68007;51.312;12.372;2023-03-11T13:53:07;2.70;99.90
3418;DHT22;68007;51.312;12.372;2023-03-11T13:55:40;2.70;99.90
3418;DHT22;68007;51.312;12.372;2023-03-11T13:58:17;2.70;99.90
3418;DHT22;68007;51.312;12.372;2023-03-11T14:00:47;2.70;99.90
3418;DHT22;68007;51.312;12.372;2023-03-11T14:03:16;2.70;99.90
3418;DHT22;68007;51.312;12.372;2023-03-11T14:05:48;2.80;99.90
3418;DHT22;68007;51.312;12.372;2023-03-11T14:08:20;2.80;99.90
3418;DHT22;68007;51.312;12.372;2023-03-11T14:10:53;2.80;99.90
3418;DHT22;68007;51.312;12.372;2023-03-11T14:13:21;2.80;99.90
3418;DHT22;68007;51.312;12.372;2023-03-11T14:15:58;2.70;98.00
3418;DHT22;68007;51.312;12.372;2023-03-11T14:18:37;2.60;96.70
3418;DHT22;68007;51.312;12.372;2023-03-11T14:21:11;2.50;98.30
3418;DHT22;68007;51.312;12.372;2023-03-11T14:23:41;2.50;98.60
3418;DHT22;68007;51.312;12.372;2023-03-11T14:26:14;2.60;98.50
3418;DHT22;68007;51.312;12.372;2023-03-11T14:28:44;2.80;99.60
3418;DHT22;68007;51.312;12.372;2023-03-11T14:31:28;3.00;97.40
3418;DHT22;68007;51.312;12.372;2023-03-11T14:33:57;3.30;99.10
3418;DHT22;68007;51.312;12.372;2023-03-11T14:36:30;3.40;97.20
3418;DHT22;68007;51.312;12.372;2023-03-11T14:38:58;3.60;96.90
3418;DHT22;68007;51.312;12.372;2023-03-11T14:41:27;3.70;97.40
3418;DHT22;68007;51.312;12.372;2023-03-11T14:43:54;3.90;96.10
3418;DHT22;68007;51.312;12.372;2023-03-11T14:46:26;4.00;97.00
3418;DHT22;68007;51.312;12.372;2023-03-11T14:48:55;4.30;98.40
3418;DHT22;68007;51.312;12.372;2023-03-11T14:51:27;4.60;97.50
3418;DHT22;68007;51.312;12.372;2023-03-11T14:54:05;4.60;94.30
3418;DHT22;68007;51.312;12.372;2023-03-11T14:56:38;4.60;94.40
3418;DHT22;68007;51.312;12.372;2023-03-11T14:59:09;4.60;93.10
3418;DHT22;68007;51.312;12.372;2023-03-11T15:01:40;4.80;97.20
3418;DHT22;68007;51.312;12.372;2023-03-11T15:04:10;5.10;94.60
3418;DHT22;68007;51.312;12.372;2023-03-11T15:06:41;5.20;92.60
3418;DHT22;68007;51.312;12.372;2023-03-11T15:09:11;5.30;91.10
3418;DHT22;68007;51.312;12.372;2023-03-11T15:11:48;5.10;89.90
3418;DHT22;68007;51.312;12.372;2023-03-11T15:14:20;4.90;92.50
3418;DHT22;68007;51.312;12.372;2023-03-11T15:16:47;4.90;91.60
3418;DHT22;68007;51.312;12.372;2023-03-11T15:19:30;4.90;91.80
3418;DHT22;68007;51.312;12.372;2023-03-11T15:22:05;5.00;95.80
3418;DHT22;68007;51.312;12.372;2023-03-11T15:24:33;5.00;97.50
3418;DHT22;68007;51.312;12.372;2023-03-11T15:27:04;5.00;95.00
3418;DHT22;68007;51.312;12.372;2023-03-11T15:29:33;5.00;93.30
3418;DHT22;68007;51.312;12.372;2023-03-11T15:32:32;5.10;92.00
3418;DHT22;68007;51.312;12.372;2023-03-11T15:35:11;5.10;94.80
3418;DHT22;68007;51.312;12.372;2023-03-11T15:37:40;5.10;97.50
3418;DHT22;68007;51.312;12.372;2023-03-11T15:40:17;5.20;97.30
3418;DHT22;68007;51.312;12.372;2023-03-11T15:42:46;5.00;95.10
3418;DHT22;68007;51.312;12.372;2023-03-11T15:45:15;4.80;97.10
3418;DHT22;68007;51.312;12.372;2023-03-11T15:47:44;4.70;98.30
3418;DHT22;68007;51.312;12.372;2023-03-11T15:50:14;4.70;95.40
3418;DHT22;68007;51.312;12.372;2023-03-11T15:52:42;4.70;95.50
3418;DHT22;68007;51.312;12.372;2023-03-11T15:55:10;4.80;97.70
3418;DHT22;68007;51.312;12.372;2023-03-11T15:57:38;4.70;96.80
3418;DHT22;68007;51.312;12.372;2023-03-11T16:00:14;4.80;96.50
3418;DHT22;68007;51.312;12.372;2023-03-11T16:02:42;4.90;95.20
3418;DHT22;68007;51.312;12.372;2023-03-11T16:05:15;4.90;93.70
3418;DHT22;68007;51.312;12.372;2023-03-11T16:07:42;4.90;95.40
3418;DHT22;68007;51.312;12.372;2023-03-11T16:10:11;4.90;94.40
3418;DHT22;68007;51.312;12.372;2023-03-11T16:12:39;4.90;94.50
3418;DHT22;68007;51.312;12.372;2023-03-11T16:15:18;4.90;98.70
3418;DHT22;68007;51.312;12.372;2023-03-11T16:17:47;4.80;92.80